sensor_id;sensor_type;location;lat;lon;timestamp;P1;durP1;ratioP1;P2;durP2;ratioP2
32323;SDS011;25666;44.350;9.222;2023-03-13T00:00:53;11.80;;;3.53;;
32323;SDS011;25666;44.350;9.222;2023-03-13T00:03:21;10.38;;;4.18;;
32323;SDS011;25666;44.350;9.222;2023-03-13T00:05:46;15.95;;;3.90;;
32323;SDS011;25666;44.350;9.222;2023-03-13T00:08:12;15.57;;;4.32;;
32323;SDS011;25666;44.350;9.222;2023-03-13T00:10:37;10.10;;;3.92;;
32323;SDS011;25666;44.350;9.222;2023-03-13T00:13:04;13.88;;;4.40;;
32323;SDS011;25666;44.350;9.222;2023-03-13T00:15:29;14.48;;;4.00;;
32323;SDS011;25666;44.350;9.222;2023-03-13T00:17:55;11.68;;;4.10;;
32323;SDS011;25666;44.350;9.222;2023-03-13T00:20:20;17.77;;;4.70;;
32323;SDS011;25666;44.350;9.222;2023-03-13T00:22:46;11.18;;;4.03;;
32323;SDS011;25666;44.350;9.222;2023-03-13T00:25:12;16.08;;;3.70;;
32323;SDS011;25666;44.350;9.222;2023-03-13T00:27:37;8.05;;;3.15;;
32323;SDS011;25666;44.350;9.222;2023-03-13T00:30:03;9.60;;;3.67;;
32323;SDS011;25666;44.350;9.222;2023-03-13T00:32:28;14.65;;;3.88;;
32323;SDS011;25666;44.350;9.222;2023-03-13T00:34:54;14.13;;;3.00;;
32323;SDS011;25666;44.350;9.222;2023-03-13T00:37:20;13.40;;;3.38;;
32323;SDS011;25666;44.350;9.222;2023-03-13T00:39:46;14.48;;;3.63;;
32323;SDS011;25666;44.350;9.222;2023-03-13T00:42:11;9.27;;;3.30;;
32323;SDS011;25666;44.350;9.222;2023-03-13T00:44:37;7.97;;;2.92;;
32323;SDS011;25666;44.350;9.222;2023-03-13T00:47:02;15.00;;;3.83;;
32323;SDS011;25666;44.350;9.222;2023-03-13T00:49:29;16.25;;;3.42;;
32323;SDS011;25666;44.350;9.222;2023-03-13T00:51:55;15.43;;;3.95;;
32323;SDS011;25666;44.350;9.222;2023-03-13T00:54:21;12.48;;;3.85;;
32323;SDS011;25666;44.350;9.222;2023-03-13T00:56:46;9.50;;;3.50;;
32323;SDS011;25666;44.350;9.222;2023-03-13T00:59:12;9.32;;;2.83;;
32323;SDS011;25666;44.350;9.222;2023-03-13T01:01:39;11.48;;;3.28;;
32323;SDS011;25666;44.350;9.222;2023-03-13T01:04:06;14.63;;;4.45;;
32323;SDS011;25666;44.350;9.222;2023-03-13T01:06:36;9.68;;;3.50;;
32323;SDS011;25666;44.350;9.222;2023-03-13T01:09:07;8.25;;;3.83;;
32323;SDS011;25666;44.350;9.222;2023-03-13T01:11:35;14.75;;;3.80;;
32323;SDS011;25666;44.350;9.222;2023-03-13T01:14:03;13.18;;;4.50;;
32323;SDS011;25666;44.350;9.222;2023-03-13T01:16:32;15.05;;;3.80;;
32323;SDS011;25666;44.350;9.222;2023-03-13T01:18:59;14.18;;;4.13;;
32323;SDS011;25666;44.350;9.222;2023-03-13T01:21:33;13.57;;;3.90;;
32323;SDS011;25666;44.350;9.222;2023-03-13T01:23:59;12.35;;;3.45;;
32323;SDS011;25666;44.350;9.222;2023-03-13T01:26:25;10.10;;;3.28;;
32323;SDS011;25666;44.350;9.222;2023-03-13T01:28:52;10.05;;;3.08;;
32323;SDS011;25666;44.350;9.222;2023-03-13T01:31:18;11.70;;;3.45;;
32323;SDS011;25666;44.350;9.222;2023-03-13T01:33:46;9.25;;;2.33;;
32323;SDS011;25666;44.350;9.222;2023-03-13T01:36:14;14.80;;;4.38;;
32323;SDS011;25666;44.350;9.222;2023-03-13T01:38:40;14.65;;;4.13;;
32323;SDS011;25666;44.350;9.222;2023-03-13T01:41:06;15.30;;;3.97;;
32323;SDS011;25666;44.350;9.222;2023-03-13T01:43:33;8.60;;;3.13;;
32323;SDS011;25666;44.350;9.222;2023-03-13T01:46:08;18.02;;;3.65;;
32323;SDS011;25666;44.350;9.222;2023-03-13T01:49:24;8.07;;;3.47;;
32323;SDS011;25666;44.350;9.222;2023-03-13T01:52:07;17.88;;;3.97;;
32323;SDS011;25666;44.350;9.222;2023-03-13T01:54:54;18.33;;;3.67;;
32323;SDS011;25666;44.350;9.222;2023-03-13T01:57:26;15.77;;;3.47;;
32323;SDS011;25666;44.350;9.222;2023-03-13T01:59:57;13.80;;;3.35;;
32323;SDS011;25666;44.350;9.222;2023-03-13T02:02:26;6.57;;;2.92;;
32323;SDS011;25666;44.350;9.222;2023-03-13T02:04:54;5.13;;;2.65;;
32323;SDS011;25666;44.350;9.222;2023-03-13T02:07:29;12.52;;;2.65;;
32323;SDS011;25666;44.350;9.222;2023-03-13T02:09:59;17.42;;;3.10;;
32323;SDS011;25666;44.350;9.222;2023-03-13T02:12:28;16.00;;;3.83;;
32323;SDS011;25666;44.350;9.222;2023-03-13T02:14:57;14.27;;;3.25;;
32323;SDS011;25666;44.350;9.222;2023-03-13T02:17:24;9.98;;;3.50;;
32323;SDS011;25666;44.350;9.222;2023-03-13T02:19:51;10.25;;;3.80;;
32323;SDS011;25666;44.350;9.222;2023-03-13T02:27:50;9.50;;;3.55;;
32323;SDS011;25666;44.350;9.222;2023-03-13T02:30:19;9.93;;;3.95;;
32323;SDS011;25666;44.350;9.222;2023-03-13T02:32:46;7.10;;;3.45;;
32323;SDS011;25666;44.350;9.222;2023-03-13T02:35:12;11.57;;;3.42;;
32323;SDS011;25666;44.350;9.222;2023-03-13T02:37:41;7.95;;;2.95;;
32323;SDS011;25666;44.350;9.222;2023-03-13T02:40:14;15.63;;;3.40;;
32323;SDS011;25666;44.350;9.222;2023-03-13T02:42:44;17.60;;;3.28;;
32323;SDS011;25666;44.350;9.222;2023-03-13T02:45:14;11.63;;;3.90;;
32323;SDS011;25666;44.350;9.222;2023-03-13T02:47:42;10.73;;;2.95;;
32323;SDS011;25666;44.350;9.222;2023-03-13T02:50:08;14.93;;;3.25;;
32323;SDS011;25666;44.350;9.222;2023-03-13T02:52:37;12.48;;;3.50;;
32323;SDS011;25666;44.350;9.222;2023-03-13T02:55:15;15.15;;;3.17;;
32323;SDS011;25666;44.350;9.222;2023-03-13T02:57:47;11.57;;;3.17;;
32323;SDS011;25666;44.350;9.222;2023-03-13T03:00:12;9.20;;;2.75;;
32323;SDS011;25666;44.350;9.222;2023-03-13T03:02:41;13.50;;;2.83;;
32323;SDS011;25666;44.350;9.222;2023-03-13T03:05:10;11.55;;;2.20;;
32323;SDS011;25666;44.350;9.222;2023-03-13T03:07:37;8.70;;;2.10;;
32323;SDS011;25666;44.350;9.222;2023-03-13T03:10:04;7.65;;;2.17;;
32323;SDS011;25666;44.350;9.222;2023-03-13T03:12:30;11.18;;;2.50;;
32323;SDS011;25666;44.350;9.222;2023-03-13T03:14:56;12.50;;;2.90;;
32323;SDS011;25666;44.350;9.222;2023-03-13T03:17:22;11.35;;;2.85;;
32323;SDS011;25666;44.350;9.222;2023-03-13T03:19:47;6.30;;;2.70;;
32323;SDS011;25666;44.350;9.222;2023-03-13T03:22:13;16.48;;;3.53;;
32323;SDS011;25666;44.350;9.222;2023-03-13T03:24:38;12.35;;;3.05;;
32323;SDS011;25666;44.350;9.222;2023-03-13T03:27:04;11.68;;;3.20;;
32323;SDS011;25666;44.350;9.222;2023-03-13T03:32:02;10.35;;;2.97;;
32323;SDS011;25666;44.350;9.222;2023-03-13T03:34:28;9.05;;;2.78;;
32323;SDS011;25666;44.350;9.222;2023-03-13T03:36:54;10.07;;;2.42;;
32323;SDS011;25666;44.350;9.222;2023-03-13T03:39:20;15.63;;;2.67;;
32323;SDS011;25666;44.350;9.222;2023-03-13T03:41:46;9.07;;;3.08;;
32323;SDS011;25666;44.350;9.222;2023-03-13T03:44:11;6.32;;;2.78;;
32323;SDS011;25666;44.350;9.222;2023-03-13T03:46:47;9.70;;;2.25;;
32323;SDS011;25666;44.350;9.222;2023-03-13T03:49:13;7.25;;;2.13;;
32323;SDS011;25666;44.350;9.222;2023-03-13T03:51:39;8.73;;;2.17;;
32323;SDS011;25666;44.350;9.222;2023-03-13T03:54:04;5.82;;;2.20;;
32323;SDS011;25666;44.350;9.222;2023-03-13T03:56:31;9.85;;;3.00;;
32323;SDS011;25666;44.350;9.222;2023-03-13T03:58:58;7.82;;;2.42;;
32323;SDS011;25666;44.350;9.222;2023-03-13T04:01:42;4.93;;;2.17;;
32323;SDS011;25666;44.350;9.222;2023-03-13T04:04:08;13.27;;;2.22;;
32323;SDS011;25666;44.350;9.222;2023-03-13T04:06:34;7.97;;;2.38;;
32323;SDS011;25666;44.350;9.222;2023-03-13T04:09:01;8.90;;;2.30;;
32323;SDS011;25666;44.350;9.222;2023-03-13T04:11:28;8.77;;;2.70;;
32323;SDS011;25666;44.350;9.222;2023-03-13T04:13:54;10.57;;;3.40;;
32323;SDS011;25666;44.350;9.222;2023-03-13T04:16:20;8.10;;;2.58;;
32323;SDS011;25666;44.350;9.222;2023-03-13T04:18:47;7.90;;;2.25;;
32323;SDS011;25666;44.350;9.222;2023-03-13T04:21:14;11.07;;;2.90;;
32323;SDS011;25666;44.350;9.222;2023-03-13T04:23:43;12.30;;;2.92;;
32323;SDS011;25666;44.350;9.222;2023-03-13T04:26:10;9.95;;;2.35;;
32323;SDS011;25666;44.350;9.222;2023-03-13T04:28:37;7.45;;;2.20;;
32323;SDS011;25666;44.350;9.222;2023-03-13T04:31:05;7.97;;;2.25;;
32323;SDS011;25666;44.350;9.222;2023-03-13T04:33:39;8.82;;;2.28;;
32323;SDS011;25666;44.350;9.222;2023-03-13T04:36:16;8.52;;;2.95;;
32323;SDS011;25666;44.350;9.222;2023-03-13T04:39:01;10.75;;;3.00;;
32323;SDS011;25666;44.350;9.222;2023-03-13T04:41:48;8.68;;;2.45;;
32323;SDS011;25666;44.350;9.222;2023-03-13T04:44:33;9.80;;;2.50;;
32323;SDS011;25666;44.350;9.222;2023-03-13T04:47:17;9.45;;;2.72;;
32323;SDS011;25666;44.350;9.222;2023-03-13T04:50:01;10.07;;;2.28;;
32323;SDS011;25666;44.350;9.222;2023-03-13T04:52:43;7.60;;;2.22;;
32323;SDS011;25666;44.350;9.222;2023-03-13T04:55:41;7.15;;;2.97;;
32323;SDS011;25666;44.350;9.222;2023-03-13T04:58:25;9.77;;;2.38;;
32323;SDS011;25666;44.350;9.222;2023-03-13T05:01:05;8.35;;;2.67;;
32323;SDS011;25666;44.350;9.222;2023-03-13T05:03:59;28.20;;;10.80;;
32323;SDS011;25666;44.350;9.222;2023-03-13T05:06:53;10.75;;;3.38;;
32323;SDS011;25666;44.350;9.222;2023-03-13T05:09:25;58.08;;;16.75;;
32323;SDS011;25666;44.350;9.222;2023-03-13T05:12:16;73.30;;;23.42;;
32323;SDS011;25666;44.350;9.222;2023-03-13T05:14:55;38.58;;;11.32;;
32323;SDS011;25666;44.350;9.222;2023-03-13T05:17:24;28.90;;;9.82;;
32323;SDS011;25666;44.350;9.222;2023-03-13T05:20:08;20.90;;;6.00;;
32323;SDS011;25666;44.350;9.222;2023-03-13T05:22:55;13.23;;;5.20;;
32323;SDS011;25666;44.350;9.222;2023-03-13T05:25:50;26.40;;;5.70;;
32323;SDS011;25666;44.350;9.222;2023-03-13T05:28:38;22.10;;;5.47;;
32323;SDS011;25666;44.350;9.222;2023-03-13T05:31:30;16.60;;;3.97;;
32323;SDS011;25666;44.350;9.222;2023-03-13T05:34:06;10.75;;;4.40;;
32323;SDS011;25666;44.350;9.222;2023-03-13T05:36:50;9.18;;;3.63;;
32323;SDS011;25666;44.350;9.222;2023-03-13T05:39:45;12.52;;;4.13;;
32323;SDS011;25666;44.350;9.222;2023-03-13T05:42:22;17.42;;;4.80;;
32323;SDS011;25666;44.350;9.222;2023-03-13T05:45:10;17.77;;;4.25;;
32323;SDS011;25666;44.350;9.222;2023-03-13T05:47:59;12.45;;;3.85;;
32323;SDS011;25666;44.350;9.222;2023-03-13T05:50:37;14.48;;;4.45;;
32323;SDS011;25666;44.350;9.222;2023-03-13T05:53:21;20.08;;;5.90;;
32323;SDS011;25666;44.350;9.222;2023-03-13T05:56:09;23.08;;;4.43;;
32323;SDS011;25666;44.350;9.222;2023-03-13T05:59:00;17.60;;;6.03;;
32323;SDS011;25666;44.350;9.222;2023-03-13T06:01:34;16.80;;;5.07;;
32323;SDS011;25666;44.350;9.222;2023-03-13T06:04:08;15.48;;;4.28;;
32323;SDS011;25666;44.350;9.222;2023-03-13T06:06:35;13.13;;;4.72;;
32323;SDS011;25666;44.350;9.222;2023-03-13T06:09:01;15.60;;;5.63;;
32323;SDS011;25666;44.350;9.222;2023-03-13T06:11:29;22.90;;;4.13;;
32323;SDS011;25666;44.350;9.222;2023-03-13T06:13:55;21.02;;;3.88;;
32323;SDS011;25666;44.350;9.222;2023-03-13T06:16:30;14.10;;;3.88;;
32323;SDS011;25666;44.350;9.222;2023-03-13T06:19:09;18.80;;;4.95;;
32323;SDS011;25666;44.350;9.222;2023-03-13T06:21:35;23.30;;;5.28;;
32323;SDS011;25666;44.350;9.222;2023-03-13T06:24:01;23.88;;;5.85;;
32323;SDS011;25666;44.350;9.222;2023-03-13T06:26:27;22.58;;;5.97;;
32323;SDS011;25666;44.350;9.222;2023-03-13T06:28:52;17.15;;;5.22;;
32323;SDS011;25666;44.350;9.222;2023-03-13T06:31:18;12.32;;;3.53;;
32323;SDS011;25666;44.350;9.222;2023-03-13T06:33:43;24.73;;;4.85;;
32323;SDS011;25666;44.350;9.222;2023-03-13T06:36:09;15.65;;;4.53;;
32323;SDS011;25666;44.350;9.222;2023-03-13T06:38:34;17.95;;;4.25;;
32323;SDS011;25666;44.350;9.222;2023-03-13T06:41:00;15.98;;;4.32;;
32323;SDS011;25666;44.350;9.222;2023-03-13T06:43:26;19.35;;;4.75;;
32323;SDS011;25666;44.350;9.222;2023-03-13T06:45:52;18.55;;;4.95;;
32323;SDS011;25666;44.350;9.222;2023-03-13T06:48:18;27.85;;;7.20;;
32323;SDS011;25666;44.350;9.222;2023-03-13T06:50:47;45.92;;;17.25;;
32323;SDS011;25666;44.350;9.222;2023-03-13T06:53:14;52.00;;;16.80;;
32323;SDS011;25666;44.350;9.222;2023-03-13T06:55:41;54.97;;;21.25;;
32323;SDS011;25666;44.350;9.222;2023-03-13T06:58:07;72.07;;;24.48;;
32323;SDS011;25666;44.350;9.222;2023-03-13T07:00:32;61.08;;;21.95;;
32323;SDS011;25666;44.350;9.222;2023-03-13T07:02:58;66.22;;;26.25;;
32323;SDS011;25666;44.350;9.222;2023-03-13T07:05:24;62.78;;;21.70;;
32323;SDS011;25666;44.350;9.222;2023-03-13T07:07:49;72.68;;;23.80;;
32323;SDS011;25666;44.350;9.222;2023-03-13T07:10:15;58.05;;;22.63;;
32323;SDS011;25666;44.350;9.222;2023-03-13T07:12:40;69.00;;;21.13;;
32323;SDS011;25666;44.350;9.222;2023-03-13T07:15:06;74.47;;;29.52;;
32323;SDS011;25666;44.350;9.222;2023-03-13T07:17:32;67.13;;;24.23;;
32323;SDS011;25666;44.350;9.222;2023-03-13T07:19:57;64.15;;;23.40;;
32323;SDS011;25666;44.350;9.222;2023-03-13T07:22:23;65.75;;;22.20;;
32323;SDS011;25666;44.350;9.222;2023-03-13T07:24:48;62.58;;;21.88;;
32323;SDS011;25666;44.350;9.222;2023-03-13T07:27:14;67.30;;;22.05;;
32323;SDS011;25666;44.350;9.222;2023-03-13T07:29:41;68.28;;;24.73;;
32323;SDS011;25666;44.350;9.222;2023-03-13T07:32:07;60.75;;;22.15;;
32323;SDS011;25666;44.350;9.222;2023-03-13T07:34:32;69.22;;;25.90;;
32323;SDS011;25666;44.350;9.222;2023-03-13T07:36:57;74.85;;;27.17;;
32323;SDS011;25666;44.350;9.222;2023-03-13T07:39:23;65.50;;;23.05;;
32323;SDS011;25666;44.350;9.222;2023-03-13T07:41:49;52.15;;;22.27;;
32323;SDS011;25666;44.350;9.222;2023-03-13T07:44:15;55.30;;;15.35;;
32323;SDS011;25666;44.350;9.222;2023-03-13T07:46:41;41.13;;;12.32;;
32323;SDS011;25666;44.350;9.222;2023-03-13T07:49:06;39.50;;;11.05;;
32323;SDS011;25666;44.350;9.222;2023-03-13T07:51:32;33.70;;;8.50;;
32323;SDS011;25666;44.350;9.222;2023-03-13T07:53:57;33.15;;;8.02;;
32323;SDS011;25666;44.350;9.222;2023-03-13T07:56:23;25.92;;;8.32;;
32323;SDS011;25666;44.350;9.222;2023-03-13T07:58:49;24.40;;;8.20;;
32323;SDS011;25666;44.350;9.222;2023-03-13T08:01:16;26.52;;;6.82;;
32323;SDS011;25666;44.350;9.222;2023-03-13T08:03:43;22.27;;;8.27;;
32323;SDS011;25666;44.350;9.222;2023-03-13T08:06:10;15.80;;;5.72;;
32323;SDS011;25666;44.350;9.222;2023-03-13T08:08:37;32.88;;;6.38;;
32323;SDS011;25666;44.350;9.222;2023-03-13T08:11:04;29.38;;;7.05;;
32323;SDS011;25666;44.350;9.222;2023-03-13T08:13:32;19.17;;;5.38;;
32323;SDS011;25666;44.350;9.222;2023-03-13T08:16:03;17.95;;;5.13;;
32323;SDS011;25666;44.350;9.222;2023-03-13T08:18:36;34.67;;;5.10;;
32323;SDS011;25666;44.350;9.222;2023-03-13T08:21:07;26.50;;;7.07;;
32323;SDS011;25666;44.350;9.222;2023-03-13T08:23:33;20.08;;;4.82;;
32323;SDS011;25666;44.350;9.222;2023-03-13T08:26:00;17.63;;;4.68;;
32323;SDS011;25666;44.350;9.222;2023-03-13T08:28:36;16.30;;;4.93;;
32323;SDS011;25666;44.350;9.222;2023-03-13T08:31:07;19.73;;;5.03;;
32323;SDS011;25666;44.350;9.222;2023-03-13T08:33:33;17.13;;;3.70;;
32323;SDS011;25666;44.350;9.222;2023-03-13T08:35:58;16.33;;;4.28;;
32323;SDS011;25666;44.350;9.222;2023-03-13T08:38:24;23.20;;;5.35;;
32323;SDS011;25666;44.350;9.222;2023-03-13T08:40:52;19.50;;;4.43;;
32323;SDS011;25666;44.350;9.222;2023-03-13T08:43:20;11.90;;;3.38;;
32323;SDS011;25666;44.350;9.222;2023-03-13T08:45:46;16.63;;;4.20;;
32323;SDS011;25666;44.350;9.222;2023-03-13T08:50:43;16.87;;;3.90;;
32323;SDS011;25666;44.350;9.222;2023-03-13T08:53:09;15.00;;;3.85;;
32323;SDS011;25666;44.350;9.222;2023-03-13T08:55:34;12.48;;;3.45;;
32323;SDS011;25666;44.350;9.222;2023-03-13T08:57:59;18.40;;;4.30;;
32323;SDS011;25666;44.350;9.222;2023-03-13T09:00:25;15.32;;;2.80;;
32323;SDS011;25666;44.350;9.222;2023-03-13T09:02:50;17.88;;;3.80;;
32323;SDS011;25666;44.350;9.222;2023-03-13T09:05:16;39.92;;;3.72;;
32323;SDS011;25666;44.350;9.222;2023-03-13T09:07:41;16.58;;;3.47;;
32323;SDS011;25666;44.350;9.222;2023-03-13T09:10:07;12.88;;;3.38;;
32323;SDS011;25666;44.350;9.222;2023-03-13T09:12:33;19.60;;;4.15;;
32323;SDS011;25666;44.350;9.222;2023-03-13T09:14:58;15.38;;;3.63;;
32323;SDS011;25666;44.350;9.222;2023-03-13T09:17:24;16.90;;;3.67;;
32323;SDS011;25666;44.350;9.222;2023-03-13T09:19:50;13.23;;;4.00;;
32323;SDS011;25666;44.350;9.222;2023-03-13T09:22:15;13.05;;;3.08;;
32323;SDS011;25666;44.350;9.222;2023-03-13T09:24:41;27.52;;;4.47;;
32323;SDS011;25666;44.350;9.222;2023-03-13T09:27:08;13.95;;;3.85;;
32323;SDS011;25666;44.350;9.222;2023-03-13T09:29:34;19.70;;;3.33;;
32323;SDS011;25666;44.350;9.222;2023-03-13T09:32:04;17.80;;;3.13;;
32323;SDS011;25666;44.350;9.222;2023-03-13T09:34:29;13.85;;;3.33;;
32323;SDS011;25666;44.350;9.222;2023-03-13T09:36:56;29.42;;;5.53;;
32323;SDS011;25666;44.350;9.222;2023-03-13T09:39:21;17.05;;;3.70;;
32323;SDS011;25666;44.350;9.222;2023-03-13T09:44:23;11.70;;;3.17;;
32323;SDS011;25666;44.350;9.222;2023-03-13T09:49:24;32.53;;;4.93;;
32323;SDS011;25666;44.350;9.222;2023-03-13T09:51:53;21.00;;;3.85;;
32323;SDS011;25666;44.350;9.222;2023-03-13T09:54:30;24.27;;;3.72;;
32323;SDS011;25666;44.350;9.222;2023-03-13T10:02:37;23.15;;;4.05;;
32323;SDS011;25666;44.350;9.222;2023-03-13T10:07:29;16.85;;;3.25;;
32323;SDS011;25666;44.350;9.222;2023-03-13T10:09:54;20.92;;;4.35;;
32323;SDS011;25666;44.350;9.222;2023-03-13T10:12:22;28.95;;;4.10;;
32323;SDS011;25666;44.350;9.222;2023-03-13T10:14:54;18.85;;;3.10;;
32323;SDS011;25666;44.350;9.222;2023-03-13T10:17:33;28.60;;;4.47;;
32323;SDS011;25666;44.350;9.222;2023-03-13T10:20:22;11.65;;;3.13;;
32323;SDS011;25666;44.350;9.222;2023-03-13T10:22:58;15.90;;;3.47;;
32323;SDS011;25666;44.350;9.222;2023-03-13T10:25:28;23.92;;;4.00;;
32323;SDS011;25666;44.350;9.222;2023-03-13T10:28:00;21.88;;;3.53;;
32323;SDS011;25666;44.350;9.222;2023-03-13T10:30:30;19.48;;;3.33;;
32323;SDS011;25666;44.350;9.222;2023-03-13T10:35:32;21.10;;;3.63;;
32323;SDS011;25666;44.350;9.222;2023-03-13T10:38:10;24.17;;;4.47;;
32323;SDS011;25666;44.350;9.222;2023-03-13T10:40:35;19.30;;;5.18;;
32323;SDS011;25666;44.350;9.222;2023-03-13T10:43:03;24.92;;;5.22;;
32323;SDS011;25666;44.350;9.222;2023-03-13T10:45:35;20.55;;;4.28;;
32323;SDS011;25666;44.350;9.222;2023-03-13T10:48:12;12.32;;;3.80;;
32323;SDS011;25666;44.350;9.222;2023-03-13T10:50:44;16.23;;;3.95;;
32323;SDS011;25666;44.350;9.222;2023-03-13T10:53:22;21.60;;;3.60;;
32323;SDS011;25666;44.350;9.222;2023-03-13T10:56:03;11.93;;;4.00;;
32323;SDS011;25666;44.350;9.222;2023-03-13T10:58:33;22.33;;;3.28;;
32323;SDS011;25666;44.350;9.222;2023-03-13T11:07:03;16.98;;;5.47;;
32323;SDS011;25666;44.350;9.222;2023-03-13T11:12:45;26.35;;;3.58;;
32323;SDS011;25666;44.350;9.222;2023-03-13T11:15:17;14.98;;;3.42;;
32323;SDS011;25666;44.350;9.222;2023-03-13T11:17:50;16.30;;;3.88;;
32323;SDS011;25666;44.350;9.222;2023-03-13T11:20:45;9.25;;;2.60;;
32323;SDS011;25666;44.350;9.222;2023-03-13T11:26:11;18.00;;;2.95;;
32323;SDS011;25666;44.350;9.222;2023-03-13T11:31:43;18.35;;;4.60;;
32323;SDS011;25666;44.350;9.222;2023-03-13T11:39:37;14.15;;;2.72;;
32323;SDS011;25666;44.350;9.222;2023-03-13T11:42:31;24.10;;;4.85;;
32323;SDS011;25666;44.350;9.222;2023-03-13T11:48:21;14.88;;;3.10;;
32323;SDS011;25666;44.350;9.222;2023-03-13T12:09:05;19.50;;;4.53;;
32323;SDS011;25666;44.350;9.222;2023-03-13T12:14:26;16.92;;;4.57;;
32323;SDS011;25666;44.350;9.222;2023-03-13T12:17:09;16.95;;;5.20;;
32323;SDS011;25666;44.350;9.222;2023-03-13T12:22:35;18.13;;;4.28;;
32323;SDS011;25666;44.350;9.222;2023-03-13T12:27:49;14.68;;;5.13;;
32323;SDS011;25666;44.350;9.222;2023-03-13T12:35:28;21.83;;;4.70;;
32323;SDS011;25666;44.350;9.222;2023-03-13T12:41:23;16.95;;;3.83;;
32323;SDS011;25666;44.350;9.222;2023-03-13T12:43:50;18.02;;;3.95;;
32323;SDS011;25666;44.350;9.222;2023-03-13T12:52:14;17.15;;;3.97;;
32323;SDS011;25666;44.350;9.222;2023-03-13T13:00:44;18.45;;;4.28;;
32323;SDS011;25666;44.350;9.222;2023-03-13T13:08:46;23.58;;;4.07;;
32323;SDS011;25666;44.350;9.222;2023-03-13T13:11:54;27.13;;;5.25;;
32323;SDS011;25666;44.350;9.222;2023-03-13T13:14:01;25.20;;;3.70;;
32323;SDS011;25666;44.350;9.222;2023-03-13T13:16:50;35.70;;;5.25;;
32323;SDS011;25666;44.350;9.222;2023-03-13T13:32:34;19.60;;;4.57;;
32323;SDS011;25666;44.350;9.222;2023-03-13T13:37:38;20.05;;;5.07;;
32323;SDS011;25666;44.350;9.222;2023-03-13T13:40:15;26.58;;;5.78;;
32323;SDS011;25666;44.350;9.222;2023-03-13T13:45:22;23.00;;;5.15;;
32323;SDS011;25666;44.350;9.222;2023-03-13T13:47:51;18.33;;;4.03;;
32323;SDS011;25666;44.350;9.222;2023-03-13T13:50:38;29.02;;;5.70;;
32323;SDS011;25666;44.350;9.222;2023-03-13T13:53:23;26.73;;;5.57;;
32323;SDS011;25666;44.350;9.222;2023-03-13T13:55:53;23.70;;;5.28;;
32323;SDS011;25666;44.350;9.222;2023-03-13T13:58:22;23.80;;;5.13;;
32323;SDS011;25666;44.350;9.222;2023-03-13T14:03:20;24.92;;;4.88;;
32323;SDS011;25666;44.350;9.222;2023-03-13T14:05:47;29.15;;;6.00;;
32323;SDS011;25666;44.350;9.222;2023-03-13T14:10:51;26.47;;;6.37;;
32323;SDS011;25666;44.350;9.222;2023-03-13T14:13:28;21.52;;;6.85;;
32323;SDS011;25666;44.350;9.222;2023-03-13T14:15:54;22.23;;;4.38;;
32323;SDS011;25666;44.350;9.222;2023-03-13T14:18:21;23.88;;;4.43;;
32323;SDS011;25666;44.350;9.222;2023-03-13T14:23:34;36.42;;;5.55;;
32323;SDS011;25666;44.350;9.222;2023-03-13T14:26:29;36.78;;;6.25;;
32323;SDS011;25666;44.350;9.222;2023-03-13T14:28:55;34.10;;;5.18;;
32323;SDS011;25666;44.350;9.222;2023-03-13T14:31:33;38.63;;;5.20;;
32323;SDS011;25666;44.350;9.222;2023-03-13T14:34:04;34.78;;;5.30;;
32323;SDS011;25666;44.350;9.222;2023-03-13T14:36:44;22.85;;;3.70;;
32323;SDS011;25666;44.350;9.222;2023-03-13T14:39:16;24.77;;;4.53;;
32323;SDS011;25666;44.350;9.222;2023-03-13T14:42:09;27.95;;;4.82;;
32323;SDS011;25666;44.350;9.222;2023-03-13T14:44:37;25.30;;;4.68;;
32323;SDS011;25666;44.350;9.222;2023-03-13T14:47:10;28.17;;;4.70;;
32323;SDS011;25666;44.350;9.222;2023-03-13T14:49:54;26.75;;;4.45;;
32323;SDS011;25666;44.350;9.222;2023-03-13T14:52:25;32.78;;;5.50;;
32323;SDS011;25666;44.350;9.222;2023-03-13T14:54:53;34.30;;;6.40;;
32323;SDS011;25666;44.350;9.222;2023-03-13T14:57:23;45.55;;;5.35;;
32323;SDS011;25666;44.350;9.222;2023-03-13T14:59:53;37.42;;;5.82;;
32323;SDS011;25666;44.350;9.222;2023-03-13T15:02:39;31.27;;;5.97;;
32323;SDS011;25666;44.350;9.222;2023-03-13T15:05:28;31.63;;;5.18;;
32323;SDS011;25666;44.350;9.222;2023-03-13T15:07:55;26.88;;;5.03;;
32323;SDS011;25666;44.350;9.222;2023-03-13T15:10:34;28.30;;;4.95;;
32323;SDS011;25666;44.350;9.222;2023-03-13T15:13:21;29.55;;;5.53;;
32323;SDS011;25666;44.350;9.222;2023-03-13T15:15:58;24.83;;;6.43;;
32323;SDS011;25666;44.350;9.222;2023-03-13T15:18:29;47.22;;;5.30;;
32323;SDS011;25666;44.350;9.222;2023-03-13T15:20:56;35.20;;;5.13;;
32323;SDS011;25666;44.350;9.222;2023-03-13T15:23:34;28.27;;;4.63;;
32323;SDS011;25666;44.350;9.222;2023-03-13T15:25:59;38.38;;;5.63;;
32323;SDS011;25666;44.350;9.222;2023-03-13T15:28:25;27.48;;;4.75;;
32323;SDS011;25666;44.350;9.222;2023-03-13T15:30:50;26.50;;;4.93;;
32323;SDS011;25666;44.350;9.222;2023-03-13T15:33:20;27.38;;;4.28;;
32323;SDS011;25666;44.350;9.222;2023-03-13T15:35:48;23.03;;;5.33;;
32323;SDS011;25666;44.350;9.222;2023-03-13T15:38:15;25.05;;;4.75;;
32323;SDS011;25666;44.350;9.222;2023-03-13T15:40:42;28.52;;;5.47;;
32323;SDS011;25666;44.350;9.222;2023-03-13T15:43:09;29.52;;;5.50;;
32323;SDS011;25666;44.350;9.222;2023-03-13T15:45:36;47.47;;;6.47;;
32323;SDS011;25666;44.350;9.222;2023-03-13T15:48:09;27.90;;;5.85;;
32323;SDS011;25666;44.350;9.222;2023-03-13T15:50:38;33.40;;;5.03;;
32323;SDS011;25666;44.350;9.222;2023-03-13T15:53:17;27.98;;;4.78;;
32323;SDS011;25666;44.350;9.222;2023-03-13T15:55:47;29.45;;;5.70;;
32323;SDS011;25666;44.350;9.222;2023-03-13T15:58:14;32.45;;;4.93;;
32323;SDS011;25666;44.350;9.222;2023-03-13T16:00:40;36.80;;;5.68;;
32323;SDS011;25666;44.350;9.222;2023-03-13T16:03:17;28.02;;;5.18;;
32323;SDS011;25666;44.350;9.222;2023-03-13T16:05:45;35.53;;;5.35;;
32323;SDS011;25666;44.350;9.222;2023-03-13T16:08:13;22.00;;;5.55;;
32323;SDS011;25666;44.350;9.222;2023-03-13T16:10:40;41.70;;;5.75;;
32323;SDS011;25666;44.350;9.222;2023-03-13T16:13:06;26.13;;;6.47;;
32323;SDS011;25666;44.350;9.222;2023-03-13T16:15:33;30.35;;;5.68;;
32323;SDS011;25666;44.350;9.222;2023-03-13T16:17:59;20.02;;;5.75;;
32323;SDS011;25666;44.350;9.222;2023-03-13T16:20:25;27.35;;;4.78;;
32323;SDS011;25666;44.350;9.222;2023-03-13T16:22:53;47.15;;;7.43;;
32323;SDS011;25666;44.350;9.222;2023-03-13T16:25:19;38.67;;;5.97;;
32323;SDS011;25666;44.350;9.222;2023-03-13T16:27:45;31.10;;;6.97;;
32323;SDS011;25666;44.350;9.222;2023-03-13T16:30:16;28.13;;;4.70;;
32323;SDS011;25666;44.350;9.222;2023-03-13T16:32:45;35.20;;;5.90;;
32323;SDS011;25666;44.350;9.222;2023-03-13T16:35:11;42.65;;;6.75;;
32323;SDS011;25666;44.350;9.222;2023-03-13T16:37:36;36.03;;;5.82;;
32323;SDS011;25666;44.350;9.222;2023-03-13T16:40:02;28.25;;;5.53;;
32323;SDS011;25666;44.350;9.222;2023-03-13T16:42:30;27.35;;;6.28;;
32323;SDS011;25666;44.350;9.222;2023-03-13T16:44:55;30.98;;;5.28;;
32323;SDS011;25666;44.350;9.222;2023-03-13T16:47:22;40.80;;;5.93;;
32323;SDS011;25666;44.350;9.222;2023-03-13T16:49:51;57.92;;;5.70;;
32323;SDS011;25666;44.350;9.222;2023-03-13T16:52:16;32.33;;;5.28;;
32323;SDS011;25666;44.350;9.222;2023-03-13T16:54:42;43.20;;;5.07;;
32323;SDS011;25666;44.350;9.222;2023-03-13T16:57:13;30.65;;;5.60;;
32323;SDS011;25666;44.350;9.222;2023-03-13T16:59:40;21.02;;;4.78;;
32323;SDS011;25666;44.350;9.222;2023-03-13T17:02:16;31.80;;;5.13;;
32323;SDS011;25666;44.350;9.222;2023-03-13T17:04:43;26.10;;;4.55;;